createdAt,value
2022-08-02T00:01:44.094Z,0.40
2022-08-02T00:04:38.828Z,0.40
2022-08-02T00:07:36.494Z,0.40
2022-08-02T00:10:35.257Z,0.77
2022-08-02T00:13:30.057Z,0.43
2022-08-02T00:16:37.944Z,0.50
2022-08-02T00:19:33.138Z,0.30
2022-08-02T00:22:27.738Z,0.55
2022-08-02T00:25:23.350Z,0.40
2022-08-02T00:28:21.819Z,0.40
2022-08-02T00:31:22.335Z,0.73
2022-08-02T00:34:29.206Z,0.47
2022-08-02T00:37:25.799Z,0.80
2022-08-02T00:40:24.714Z,0.52
2022-08-02T00:43:20.640Z,0.47
2022-08-02T00:46:16.062Z,0.63
2022-08-02T00:49:12.168Z,0.47
2022-08-02T00:52:09.729Z,0.60
2022-08-02T00:55:04.519Z,0.50
2022-08-02T00:57:59.797Z,0.47
2022-08-02T01:00:58.844Z,0.57
2022-08-02T01:06:47.497Z,0.55
2022-08-02T01:09:43.269Z,0.40
2022-08-02T01:12:38.827Z,0.50
2022-08-02T01:15:36.304Z,0.43
2022-08-02T01:18:38.016Z,0.40
2022-08-02T01:21:51.070Z,0.50
2022-08-02T01:25:16.127Z,0.60
2022-08-02T01:28:31.983Z,0.35
2022-08-02T01:31:26.546Z,0.32
2022-08-02T01:34:34.389Z,0.50
2022-08-02T01:40:35.686Z,0.50
2022-08-02T01:43:31.918Z,0.52
2022-08-02T01:46:28.483Z,0.32
2022-08-02T01:49:25.500Z,0.50
2022-08-02T01:52:25.020Z,0.40
2022-08-02T01:55:33.509Z,0.32
2022-08-02T01:58:33.502Z,0.50
2022-08-02T02:01:28.634Z,0.40
2022-08-02T02:04:24.586Z,0.30
2022-08-02T02:07:21.423Z,0.38
2022-08-02T02:10:18.815Z,0.40
2022-08-02T02:16:12.989Z,0.40
2022-08-02T02:19:11.256Z,0.80
2022-08-02T02:22:06.922Z,0.50
2022-08-02T02:25:01.852Z,0.68
2022-08-02T02:28:08.279Z,0.43
2022-08-02T02:31:13.138Z,0.40
2022-08-02T02:34:21.151Z,0.35
2022-08-02T02:37:24.023Z,0.50
2022-08-02T02:40:21.066Z,0.40
2022-08-02T02:43:17.487Z,0.40
2022-08-02T02:46:14.135Z,0.50
2022-08-02T02:49:12.288Z,0.52
2022-08-02T02:52:08.899Z,0.45
2022-08-02T02:55:05.392Z,0.30
2022-08-02T02:58:00.432Z,0.50
2022-08-02T03:01:14.346Z,0.47
2022-08-02T03:04:11.703Z,0.60
2022-08-02T03:10:01.065Z,0.68
2022-08-02T03:12:56.798Z,0.65
2022-08-02T03:15:54.911Z,0.57
2022-08-02T03:18:49.617Z,0.50
2022-08-02T03:21:45.897Z,0.45
2022-08-02T03:24:41.506Z,0.45
2022-08-02T03:27:36.479Z,0.73
2022-08-02T03:30:31.164Z,0.98
2022-08-02T03:33:27.991Z,0.65
2022-08-02T03:36:25.620Z,1.00
2022-08-02T03:39:22.309Z,0.95
2022-08-02T03:42:18.405Z,0.75
2022-08-02T03:45:15.311Z,0.70
2022-08-02T03:48:33.953Z,0.95
2022-08-02T03:51:25.884Z,1.00
2022-08-02T03:54:21.013Z,0.63
2022-08-02T03:57:16.510Z,1.05
2022-08-02T04:00:13.466Z,0.85
2022-08-02T04:03:08.334Z,0.90
2022-08-02T04:06:05.782Z,0.70
2022-08-02T04:09:00.543Z,0.90
2022-08-02T04:11:55.199Z,0.57
2022-08-02T04:14:49.950Z,0.50
2022-08-02T04:18:05.216Z,0.60
2022-08-02T04:21:02.877Z,0.50
2022-08-02T04:23:59.190Z,0.63
2022-08-02T04:27:06.324Z,0.70
2022-08-02T04:30:03.255Z,0.45
2022-08-02T04:32:58.078Z,0.73
2022-08-02T04:35:57.822Z,0.57
2022-08-02T04:38:57.347Z,0.60
2022-08-02T04:41:57.161Z,0.93
2022-08-02T04:44:53.610Z,0.75
2022-08-02T04:48:01.855Z,0.50
2022-08-02T04:50:58.765Z,0.70
2022-08-02T04:53:53.379Z,0.73
2022-08-02T04:57:00.985Z,0.80
2022-08-02T04:59:55.733Z,0.70
2022-08-02T05:02:51.552Z,0.80
2022-08-02T05:05:46.235Z,0.60
2022-08-02T05:08:40.896Z,0.75
2022-08-02T05:11:36.138Z,0.85
2022-08-02T05:14:31.540Z,0.70
2022-08-02T05:17:26.201Z,1.13
2022-08-02T05:20:21.482Z,0.80
2022-08-02T05:23:16.112Z,0.60
2022-08-02T05:26:10.934Z,0.60
2022-08-02T05:29:06.057Z,0.60
2022-08-02T05:32:03.535Z,0.68
2022-08-02T05:34:58.249Z,0.90
2022-08-02T05:37:53.734Z,0.70
2022-08-02T05:40:54.822Z,1.02
2022-08-02T05:43:50.276Z,0.50
2022-08-02T05:46:45.064Z,0.73
2022-08-02T05:49:42.431Z,0.75
2022-08-02T05:52:42.226Z,0.70
2022-08-02T05:56:08.445Z,0.70
2022-08-02T05:59:16.005Z,0.70
2022-08-02T06:02:52.814Z,0.60
2022-08-02T06:06:00.827Z,0.82
2022-08-02T06:09:04.569Z,1.00
2022-08-02T06:12:03.064Z,0.90
2022-08-02T06:14:59.773Z,1.13
2022-08-02T06:17:55.293Z,1.40
2022-08-02T06:20:53.118Z,0.90
2022-08-02T06:23:57.972Z,0.82
2022-08-02T06:26:56.606Z,0.80
2022-08-02T06:32:47.392Z,0.68
2022-08-02T06:36:32.679Z,0.82
2022-08-02T06:39:49.435Z,1.02
2022-08-02T06:42:52.954Z,0.80
2022-08-02T06:45:47.711Z,0.75
2022-08-02T06:48:42.973Z,0.50
2022-08-02T06:51:37.722Z,0.60
2022-08-02T06:54:32.490Z,0.90
2022-08-02T06:57:27.586Z,0.50
2022-08-02T07:00:22.294Z,0.77
2022-08-02T07:03:17.210Z,0.88
2022-08-02T07:06:12.517Z,1.10
2022-08-02T07:09:22.513Z,1.55
2022-08-02T07:12:17.432Z,1.63
2022-08-02T07:15:14.046Z,1.35
2022-08-02T07:18:09.593Z,1.77
2022-08-02T07:21:08.962Z,0.73
2022-08-02T07:24:03.996Z,1.10
2022-08-02T07:27:11.157Z,0.93
2022-08-02T07:30:08.277Z,0.93
2022-08-02T07:33:03.151Z,0.93
2022-08-02T07:35:59.820Z,0.80
2022-08-02T07:38:59.505Z,1.00
2022-08-02T07:41:54.564Z,0.90
2022-08-02T07:44:49.571Z,0.82
2022-08-02T07:47:46.555Z,0.90
2022-08-02T07:50:41.441Z,1.02
2022-08-02T07:53:50.973Z,0.90
2022-08-02T07:56:46.953Z,0.85
2022-08-02T07:59:45.627Z,0.60
2022-08-02T08:02:40.809Z,0.73
2022-08-02T08:05:35.453Z,0.73
2022-08-02T08:08:30.198Z,0.70
2022-08-02T08:11:24.945Z,0.80
2022-08-02T08:14:19.509Z,0.70
2022-08-02T08:17:14.364Z,0.80
2022-08-02T08:20:12.786Z,0.50
2022-08-02T08:23:10.099Z,0.90
2022-08-02T08:26:05.518Z,0.70
2022-08-02T08:29:00.271Z,0.80
2022-08-02T08:31:54.909Z,0.60
2022-08-02T08:34:50.226Z,0.80
2022-08-02T08:37:45.411Z,0.88
2022-08-02T08:40:40.460Z,0.93
2022-08-02T08:43:35.191Z,0.90
2022-08-02T08:46:33.534Z,0.80
2022-08-02T08:49:52.371Z,0.70
2022-08-02T08:53:12.361Z,0.70
2022-08-02T08:56:12.810Z,1.00
2022-08-02T08:59:10.278Z,0.95
2022-08-02T09:02:19.708Z,0.60
2022-08-02T09:05:19.407Z,0.57
2022-08-02T09:08:16.943Z,0.60
2022-08-02T09:11:20.669Z,0.63
2022-08-02T09:14:29.585Z,0.70
2022-08-02T09:17:24.297Z,0.63
2022-08-02T09:20:18.983Z,0.60
2022-08-02T09:23:14.526Z,0.60
2022-08-02T09:26:11.848Z,0.68
2022-08-02T09:32:10.246Z,0.60
2022-08-02T09:35:05.254Z,0.63
2022-08-02T09:38:12.000Z,1.10
2022-08-02T09:41:08.424Z,0.70
2022-08-02T09:44:09.098Z,0.90
2022-08-02T09:47:18.105Z,0.88
2022-08-02T09:50:15.079Z,1.10
2022-08-02T09:53:20.984Z,0.93
2022-08-02T09:56:30.336Z,0.40
2022-08-02T09:59:31.411Z,0.70
2022-08-02T10:02:26.532Z,0.60
2022-08-02T10:05:23.120Z,0.82
2022-08-02T10:08:18.081Z,0.60
2022-08-02T10:11:13.762Z,0.80
2022-08-02T10:14:10.967Z,0.68
2022-08-02T10:17:08.557Z,1.05
2022-08-02T10:20:04.935Z,0.93
2022-08-02T10:23:01.809Z,0.75
2022-08-02T10:25:57.496Z,0.60
2022-08-02T10:28:55.816Z,0.75
2022-08-02T10:31:50.499Z,0.70
2022-08-02T10:34:56.201Z,0.70
2022-08-02T10:37:59.899Z,0.73
2022-08-02T10:40:57.069Z,0.90
2022-08-02T10:43:51.945Z,0.95
2022-08-02T10:46:46.866Z,0.93
2022-08-02T10:49:53.691Z,1.10
2022-08-02T10:52:48.496Z,1.00
2022-08-02T10:55:49.743Z,1.10
2022-08-02T10:58:44.427Z,0.88
2022-08-02T11:01:46.021Z,0.80
2022-08-02T11:04:47.085Z,0.68
2022-08-02T11:07:50.626Z,0.80
2022-08-02T11:10:45.307Z,0.93
2022-08-02T11:14:06.542Z,0.90
2022-08-02T11:17:03.939Z,0.75
2022-08-02T11:20:13.964Z,0.90
2022-08-02T11:23:44.460Z,0.82
2022-08-02T11:26:40.020Z,0.75
2022-08-02T11:29:42.695Z,0.70
2022-08-02T11:32:39.037Z,0.80
2022-08-02T11:35:41.435Z,1.15
2022-08-02T11:38:36.123Z,0.90
2022-08-02T11:41:45.903Z,0.82
2022-08-02T11:44:45.084Z,0.73
2022-08-02T11:47:51.019Z,1.00
2022-08-02T11:50:45.651Z,0.90
2022-08-02T11:53:53.628Z,1.38
2022-08-02T11:56:48.279Z,1.35
2022-08-02T11:59:44.255Z,1.17
2022-08-02T12:02:39.482Z,1.10
2022-08-02T12:06:04.807Z,1.20
2022-08-02T12:08:54.694Z,1.27
2022-08-02T12:11:53.152Z,1.40
2022-08-02T12:14:48.048Z,1.27
2022-08-02T12:18:01.033Z,1.20
2022-08-02T12:20:55.710Z,1.10
2022-08-02T12:23:58.830Z,1.25
2022-08-02T12:26:55.564Z,1.55
2022-08-02T12:29:58.640Z,1.50
2022-08-02T12:32:53.992Z,1.55
2022-08-02T12:35:48.838Z,1.45
2022-08-02T12:38:56.320Z,1.08
2022-08-02T12:41:59.889Z,1.25
2022-08-02T12:45:01.868Z,1.27
2022-08-02T12:48:00.386Z,1.10
2022-08-02T12:50:55.076Z,1.95
2022-08-02T12:53:59.938Z,1.48
2022-08-02T12:56:55.353Z,1.10
2022-08-02T12:59:55.749Z,1.90
2022-08-02T13:02:50.939Z,1.38
2022-08-02T13:05:55.905Z,1.10
2022-08-02T13:08:55.199Z,1.77
2022-08-02T13:11:50.004Z,1.27
2022-08-02T13:14:44.634Z,0.88
2022-08-02T13:17:39.949Z,1.23
2022-08-02T13:20:34.604Z,0.90
2022-08-02T13:23:33.662Z,1.30
2022-08-02T13:26:47.205Z,1.30
2022-08-02T13:29:41.886Z,1.40
2022-08-02T13:32:36.593Z,1.65
2022-08-02T13:35:31.466Z,1.00
2022-08-02T13:38:28.660Z,1.67
2022-08-02T13:41:25.122Z,1.20
2022-08-02T13:44:19.781Z,1.00
2022-08-02T13:47:14.465Z,1.48
2022-08-02T13:50:22.407Z,1.27
2022-08-02T13:53:20.264Z,1.42
2022-08-02T13:56:14.841Z,1.05
2022-08-02T13:59:55.283Z,1.20
2022-08-02T14:02:24.197Z,1.25
2022-08-02T14:05:18.889Z,1.63
2022-08-02T14:08:33.307Z,1.15
2022-08-02T14:11:28.105Z,1.13
2022-08-02T14:14:22.665Z,1.10
2022-08-02T14:17:17.479Z,1.38
2022-08-02T14:20:18.002Z,1.00
2022-08-02T14:23:15.070Z,1.17
2022-08-02T14:26:15.698Z,1.35
2022-08-02T14:29:21.888Z,1.30
2022-08-02T14:32:16.675Z,1.10
2022-08-02T14:35:11.918Z,0.93
2022-08-02T14:38:06.480Z,0.85
2022-08-02T14:41:01.431Z,0.75
2022-08-02T14:44:09.316Z,0.80
2022-08-02T14:47:03.947Z,1.15
2022-08-02T14:49:58.696Z,0.60
2022-08-02T14:52:53.474Z,1.05
2022-08-02T14:55:48.088Z,1.10
2022-08-02T14:58:42.691Z,1.08
2022-08-02T15:01:37.319Z,1.25
2022-08-02T15:04:43.010Z,1.30
2022-08-02T15:07:41.967Z,1.20
2022-08-02T15:10:39.159Z,1.33
2022-08-02T15:13:35.297Z,1.10
2022-08-02T15:16:55.326Z,1.10
2022-08-02T15:19:57.487Z,1.20
2022-08-02T15:22:55.176Z,1.17
2022-08-02T15:25:50.675Z,1.02
2022-08-02T15:28:45.292Z,1.65
2022-08-02T15:31:41.761Z,1.50
2022-08-02T15:34:36.735Z,1.40
2022-08-02T15:37:34.767Z,0.90
2022-08-02T15:40:35.934Z,1.33
2022-08-02T15:43:30.723Z,1.10
2022-08-02T15:46:25.394Z,0.85
2022-08-02T15:49:26.516Z,1.45
2022-08-02T15:52:21.282Z,1.17
2022-08-02T15:55:16.448Z,0.90
2022-08-02T15:58:16.804Z,1.98
2022-08-02T16:01:12.859Z,1.75
2022-08-02T16:04:08.874Z,2.17
2022-08-02T16:07:03.486Z,1.33
2022-08-02T16:09:58.073Z,0.98
2022-08-02T16:12:52.739Z,1.30
2022-08-02T16:15:47.573Z,1.15
2022-08-02T16:18:42.113Z,1.17
2022-08-02T16:21:37.031Z,1.08
2022-08-02T16:24:32.076Z,1.15
2022-08-02T16:27:26.764Z,1.17
2022-08-02T16:30:21.335Z,0.98
2022-08-02T16:33:17.103Z,1.73
2022-08-02T16:36:14.516Z,1.17
2022-08-02T16:39:14.313Z,1.13
2022-08-02T16:42:08.934Z,1.20
2022-08-02T16:45:03.894Z,1.17
2022-08-02T16:48:03.190Z,1.10
2022-08-02T16:50:58.976Z,1.20
2022-08-02T16:53:59.094Z,1.50
2022-08-02T16:56:55.664Z,1.55
2022-08-02T16:59:57.931Z,1.50
2022-08-02T17:02:53.496Z,1.50
2022-08-02T17:05:56.342Z,1.10
2022-08-02T17:08:54.472Z,1.55
2022-08-02T17:11:49.938Z,1.20
2022-08-02T17:14:55.455Z,1.00
2022-08-02T17:17:51.078Z,1.20
2022-08-02T17:20:47.168Z,1.60
2022-08-02T17:24:05.189Z,1.40
2022-08-02T17:26:56.828Z,1.55
2022-08-02T17:29:51.700Z,1.05
2022-08-02T17:32:46.613Z,1.40
2022-08-02T17:35:51.997Z,1.38
2022-08-02T17:38:50.113Z,1.10
2022-08-02T17:45:16.642Z,1.55
2022-08-02T17:48:17.307Z,1.20
2022-08-02T17:51:12.892Z,1.48
2022-08-02T17:54:27.440Z,1.50
2022-08-02T17:57:25.029Z,1.42
2022-08-02T18:00:40.354Z,1.27
2022-08-02T18:03:42.903Z,1.05
2022-08-02T18:06:37.976Z,1.10
2022-08-02T18:09:34.544Z,1.33
2022-08-02T18:12:29.295Z,1.00
2022-08-02T18:15:24.267Z,1.15
2022-08-02T18:18:19.073Z,1.35
2022-08-02T18:21:22.404Z,1.20
2022-08-02T18:24:17.681Z,1.63
2022-08-02T18:27:12.320Z,1.13
2022-08-02T18:30:09.119Z,1.15
2022-08-02T18:36:24.566Z,1.05
2022-08-02T18:39:20.053Z,1.30
2022-08-02T18:42:18.059Z,1.20
2022-08-02T18:45:19.530Z,1.63
2022-08-02T18:48:17.479Z,1.52
2022-08-02T18:54:07.631Z,1.27
2022-08-02T18:57:04.235Z,1.48
2022-08-02T19:00:20.687Z,1.70
2022-08-02T19:03:21.210Z,1.25
2022-08-02T19:06:19.671Z,1.60
2022-08-02T19:09:16.686Z,2.33
2022-08-02T19:12:13.283Z,1.80
2022-08-02T19:15:09.671Z,1.00
2022-08-02T19:18:09.118Z,0.80
2022-08-02T19:21:05.668Z,1.42
2022-08-02T19:24:02.098Z,1.30
2022-08-02T19:33:09.303Z,1.42
2022-08-02T19:36:05.412Z,1.25
2022-08-02T19:39:00.960Z,1.80
2022-08-02T19:41:55.563Z,1.67
2022-08-02T19:44:51.186Z,1.50
2022-08-02T19:47:54.198Z,1.10
2022-08-02T19:50:49.421Z,1.40
2022-08-02T19:53:48.549Z,1.27
2022-08-02T19:56:43.794Z,0.98
2022-08-02T19:59:38.387Z,1.17
2022-08-02T20:02:33.035Z,0.80
2022-08-02T20:05:27.814Z,1.05
2022-08-02T20:08:31.358Z,1.20
2022-08-02T20:11:35.048Z,1.40
2022-08-02T20:14:30.167Z,1.30
2022-08-02T20:17:26.265Z,1.20
2022-08-02T20:20:22.250Z,1.20
2022-08-02T20:23:32.475Z,1.23
2022-08-02T20:26:47.683Z,1.15
2022-08-02T20:29:48.742Z,1.23
2022-08-02T20:32:52.742Z,1.35
2022-08-02T20:35:49.016Z,1.83
2022-08-02T20:38:44.653Z,1.23
2022-08-02T20:41:45.778Z,1.00
2022-08-02T20:44:42.916Z,1.00
2022-08-02T20:47:39.947Z,1.97
2022-08-02T20:50:50.836Z,1.20
2022-08-02T20:53:54.839Z,1.17
2022-08-02T20:56:50.431Z,1.85
2022-08-02T20:59:45.349Z,1.10
2022-08-02T21:02:47.339Z,1.40
2022-08-02T21:05:55.734Z,1.38
2022-08-02T21:08:50.862Z,0.90
2022-08-02T21:14:59.962Z,0.85
2022-08-02T21:18:00.454Z,1.23
2022-08-02T21:20:57.353Z,1.30
2022-08-02T21:23:54.687Z,1.00
2022-08-02T21:26:50.644Z,1.05
2022-08-02T21:32:41.189Z,1.10
2022-08-02T21:35:36.991Z,1.20
2022-08-02T21:38:36.560Z,1.45
2022-08-02T21:41:38.941Z,1.00
2022-08-02T21:44:41.415Z,0.82
2022-08-02T21:47:37.396Z,1.10
2022-08-02T21:50:32.037Z,1.40
2022-08-02T21:53:42.252Z,1.05
2022-08-02T21:56:37.518Z,1.13
2022-08-02T21:59:36.284Z,1.30
2022-08-02T22:02:32.833Z,0.73
2022-08-02T22:05:28.536Z,1.60
2022-08-02T22:08:32.349Z,1.30
2022-08-02T22:11:27.025Z,1.38
2022-08-02T22:14:23.447Z,1.10
2022-08-02T22:17:18.371Z,1.60
2022-08-02T22:20:13.843Z,1.73
2022-08-02T22:23:13.069Z,1.23
2022-08-02T22:26:18.931Z,1.60
2022-08-02T22:29:14.153Z,1.15
2022-08-02T22:32:09.191Z,1.08
2022-08-02T22:35:15.766Z,1.30
2022-08-02T22:38:16.729Z,1.52
2022-08-02T22:41:13.733Z,1.25
2022-08-02T22:44:08.878Z,1.50
2022-08-02T22:47:07.460Z,1.77
2022-08-02T22:50:12.024Z,1.52
2022-08-02T22:56:01.226Z,0.98
2022-08-02T22:58:48.875Z,1.45
2022-08-02T22:59:00.376Z,1.45
2022-08-02T22:59:02.072Z,1.50
2022-08-02T23:02:12.065Z,1.40
2022-08-02T23:05:07.577Z,1.13
2022-08-02T23:08:02.222Z,1.60
2022-08-02T23:10:56.854Z,1.40
2022-08-02T23:13:51.552Z,1.20
2022-08-02T23:17:04.152Z,1.15
2022-08-02T23:19:59.093Z,1.33
2022-08-02T23:22:55.749Z,1.20
2022-08-02T23:25:50.466Z,1.58
2022-08-02T23:28:45.196Z,1.70
2022-08-02T23:31:40.647Z,1.25
2022-08-02T23:34:35.575Z,1.38
2022-08-02T23:37:57.747Z,1.38
2022-08-02T23:40:44.921Z,1.38
2022-08-02T23:43:57.293Z,1.23
2022-08-02T23:46:54.864Z,1.20
2022-08-02T23:49:49.881Z,1.85
2022-08-02T23:52:44.473Z,1.48
2022-08-02T23:55:39.101Z,1.30
2022-08-02T23:58:33.706Z,1.70
